createdAt,value
2018-05-29T00:00:58.384Z,24.00
2018-05-29T00:03:25.939Z,21.50
2018-05-29T00:05:53.500Z,23.27
2018-05-29T00:08:21.070Z,21.90
2018-05-29T00:10:48.637Z,22.73
2018-05-29T00:13:16.219Z,23.77
2018-05-29T00:15:43.777Z,23.87
2018-05-29T00:18:11.346Z,24.17
2018-05-29T00:20:38.953Z,23.20
2018-05-29T00:23:06.541Z,21.93
2018-05-29T00:25:34.858Z,22.60
2018-05-29T00:28:02.449Z,22.87
2018-05-29T00:30:29.991Z,23.03
2018-05-29T00:32:58.332Z,22.73
2018-05-29T00:35:25.911Z,25.33
2018-05-29T00:37:53.498Z,23.90
2018-05-29T00:40:21.093Z,23.63
2018-05-29T00:42:49.408Z,25.90
2018-05-29T00:45:17.005Z,23.30
2018-05-29T00:47:44.560Z,25.47
2018-05-29T00:50:12.136Z,24.77
2018-05-29T00:52:39.852Z,25.50
2018-05-29T00:55:19.178Z,25.30
2018-05-29T00:57:46.782Z,25.17
2018-05-29T01:00:14.712Z,25.80
2018-05-29T01:02:42.258Z,24.53
2018-05-29T01:05:10.569Z,28.03
2018-05-29T01:07:38.125Z,27.80
2018-05-29T01:10:06.497Z,28.63
2018-05-29T01:12:34.086Z,29.70
2018-05-29T01:15:02.412Z,28.47
2018-05-29T01:17:29.936Z,25.90
2018-05-29T01:19:57.493Z,26.40
2018-05-29T01:22:26.579Z,28.40
2018-05-29T01:24:54.148Z,28.80
2018-05-29T01:27:21.710Z,27.60
2018-05-29T01:29:49.297Z,27.17
2018-05-29T01:32:16.881Z,27.00
2018-05-29T01:34:44.477Z,28.77
2018-05-29T01:37:12.033Z,27.27
2018-05-29T01:39:39.633Z,26.63
2018-05-29T01:42:07.984Z,27.30
2018-05-29T01:44:35.536Z,28.60
2018-05-29T01:47:03.111Z,29.97
2018-05-29T01:49:30.672Z,31.60
2018-05-29T01:51:58.275Z,29.57
2018-05-29T01:54:25.828Z,29.60
2018-05-29T01:56:53.424Z,29.57
2018-05-29T01:59:20.973Z,30.70
2018-05-29T02:01:49.492Z,30.13
2018-05-29T02:04:17.102Z,29.67
2018-05-29T02:06:44.660Z,31.47
2018-05-29T02:09:12.237Z,29.10
2018-05-29T02:11:40.592Z,30.57
2018-05-29T02:14:08.167Z,29.77
2018-05-29T02:16:35.763Z,28.33
2018-05-29T02:19:03.304Z,28.60
2018-05-29T02:21:30.933Z,28.43
2018-05-29T02:23:59.261Z,28.03
2018-05-29T02:26:26.829Z,30.03
2018-05-29T02:28:54.409Z,30.47
2018-05-29T02:31:21.977Z,27.80
2018-05-29T02:33:49.532Z,28.53
2018-05-29T02:36:17.095Z,30.47
2018-05-29T02:38:44.663Z,31.70
2018-05-29T02:41:12.248Z,31.00
2018-05-29T02:43:39.791Z,32.17
2018-05-29T02:46:08.140Z,32.30
2018-05-29T02:48:35.729Z,32.07
2018-05-29T02:51:03.267Z,32.50
2018-05-29T02:53:30.856Z,32.53
2018-05-29T02:55:58.403Z,32.87
2018-05-29T02:58:25.988Z,35.10
2018-05-29T03:00:53.535Z,33.93
2018-05-29T03:03:21.138Z,38.43
2018-05-29T03:05:48.859Z,39.30
2018-05-29T03:08:16.525Z,37.23
2018-05-29T03:10:44.185Z,39.27
2018-05-29T03:13:11.966Z,38.80
2018-05-29T03:15:39.678Z,41.90
2018-05-29T03:18:07.989Z,38.13
2018-05-29T03:20:35.563Z,41.77
2018-05-29T03:23:03.185Z,38.70
2018-05-29T03:25:30.779Z,35.83
2018-05-29T03:27:59.154Z,39.63
2018-05-29T03:30:26.761Z,39.50
2018-05-29T03:32:54.436Z,40.07
2018-05-29T03:35:22.105Z,42.20
2018-05-29T03:37:49.767Z,37.83
2018-05-29T03:40:18.127Z,38.33
2018-05-29T03:42:45.867Z,38.07
2018-05-29T03:45:13.522Z,38.73
2018-05-29T03:47:41.927Z,39.83
2018-05-29T03:50:09.533Z,40.43
2018-05-29T03:52:37.248Z,38.00
2018-05-29T03:55:05.554Z,38.00
2018-05-29T03:57:33.957Z,34.57
2018-05-29T04:00:01.548Z,35.20
2018-05-29T04:02:29.093Z,35.63
2018-05-29T04:04:56.716Z,35.90
2018-05-29T04:07:25.161Z,35.13
2018-05-29T04:09:52.840Z,36.90
2018-05-29T04:12:20.492Z,36.80
2018-05-29T04:14:48.867Z,34.00
2018-05-29T04:17:16.422Z,32.63
2018-05-29T04:19:43.994Z,32.37
2018-05-29T04:22:11.518Z,31.57
2018-05-29T04:24:39.073Z,33.70
2018-05-29T04:27:07.405Z,32.27
2018-05-29T04:29:35.021Z,31.70
2018-05-29T04:32:02.582Z,31.87
2018-05-29T04:34:30.191Z,32.80
2018-05-29T04:36:58.524Z,32.47
2018-05-29T04:39:26.072Z,31.00
2018-05-29T04:41:53.678Z,34.87
2018-05-29T04:44:21.289Z,31.63
2018-05-29T04:46:49.641Z,33.67
2018-05-29T04:49:17.274Z,34.00
2018-05-29T04:51:44.799Z,33.93
2018-05-29T04:54:12.500Z,32.30
2018-05-29T04:56:40.796Z,33.80
2018-05-29T04:59:09.245Z,37.50
2018-05-29T05:01:36.804Z,37.60
2018-05-29T05:04:04.344Z,43.30
2018-05-29T05:06:31.894Z,44.13
2018-05-29T05:09:00.358Z,38.83
2018-05-29T05:11:27.886Z,39.07
2018-05-29T05:13:55.469Z,33.03
2018-05-29T05:16:23.041Z,32.13
2018-05-29T05:18:50.600Z,31.90
2018-05-29T05:21:18.180Z,30.10
2018-05-29T05:23:45.734Z,27.33
2018-05-29T05:26:13.357Z,26.43
2018-05-29T05:28:40.929Z,23.73
2018-05-29T05:31:08.568Z,21.53
2018-05-29T05:33:36.418Z,20.00
2018-05-29T05:36:04.724Z,19.13
2018-05-29T05:38:33.025Z,17.60
2018-05-29T05:41:00.609Z,15.50
2018-05-29T05:43:28.153Z,14.23
2018-05-29T05:45:56.501Z,13.60
2018-05-29T05:48:24.016Z,13.50
2018-05-29T05:50:52.317Z,11.93
2018-05-29T05:53:19.850Z,11.80
2018-05-29T05:55:47.412Z,11.53
2018-05-29T05:58:14.935Z,12.00
2018-05-29T06:00:42.589Z,9.90
2018-05-29T06:03:10.897Z,9.17
2018-05-29T06:05:38.605Z,9.67
2018-05-29T06:08:06.171Z,9.13
2018-05-29T06:10:33.723Z,8.43
2018-05-29T06:13:01.370Z,9.07
2018-05-29T06:15:29.676Z,8.40
2018-05-29T06:17:57.208Z,7.30
2018-05-29T06:20:24.743Z,6.95
2018-05-29T06:22:52.269Z,6.20
2018-05-29T06:25:20.608Z,6.15
2018-05-29T06:27:48.157Z,6.53
2018-05-29T06:30:15.706Z,5.75
2018-05-29T06:32:44.054Z,6.07
2018-05-29T06:35:11.644Z,5.10
2018-05-29T06:37:39.166Z,4.60
2018-05-29T06:40:06.928Z,3.97
2018-05-29T06:42:35.201Z,3.97
2018-05-29T06:45:02.826Z,4.55
2018-05-29T06:47:30.368Z,4.28
2018-05-29T06:49:58.743Z,4.50
2018-05-29T06:52:27.025Z,5.30
2018-05-29T06:54:55.317Z,5.30
2018-05-29T06:57:23.630Z,5.00
2018-05-29T06:59:51.241Z,5.50
2018-05-29T07:02:18.754Z,4.68
2018-05-29T07:04:46.276Z,4.15
2018-05-29T07:07:13.793Z,3.85
2018-05-29T07:09:41.332Z,3.60
2018-05-29T07:12:08.887Z,3.42
2018-05-29T07:14:36.503Z,3.67
2018-05-29T07:17:04.099Z,3.22
2018-05-29T07:19:32.397Z,3.20
2018-05-29T07:21:59.957Z,3.20
2018-05-29T07:24:27.543Z,3.20
2018-05-29T07:26:55.096Z,3.65
2018-05-29T07:29:23.472Z,3.60
2018-05-29T07:31:51.221Z,2.90
2018-05-29T07:34:18.823Z,2.95
2018-05-29T07:36:46.359Z,2.72
2018-05-29T07:39:14.013Z,2.55
2018-05-29T07:41:41.709Z,2.40
2018-05-29T07:44:09.252Z,2.75
2018-05-29T07:46:36.840Z,2.40
2018-05-29T07:49:04.421Z,2.40
2018-05-29T07:51:31.946Z,2.33
2018-05-29T07:54:00.221Z,2.08
2018-05-29T07:56:27.849Z,2.40
2018-05-29T07:58:55.484Z,2.45
2018-05-29T08:01:23.929Z,2.12
2018-05-29T08:03:51.472Z,2.35
2018-05-29T08:06:19.153Z,2.37
2018-05-29T08:08:46.648Z,2.22
2018-05-29T08:11:14.204Z,2.22
2018-05-29T08:13:41.720Z,2.10
2018-05-29T08:16:19.173Z,2.20
2018-05-29T08:18:46.753Z,2.40
2018-05-29T08:21:14.346Z,1.80
2018-05-29T08:23:41.920Z,1.98
2018-05-29T08:26:09.488Z,1.90
2018-05-29T08:28:37.178Z,1.80
2018-05-29T08:31:04.901Z,1.77
2018-05-29T08:33:33.217Z,1.73
2018-05-29T08:36:00.784Z,1.85
2018-05-29T08:38:28.298Z,2.10
2018-05-29T08:40:55.890Z,1.70
2018-05-29T08:43:24.176Z,1.83
2018-05-29T08:45:52.545Z,1.70
2018-05-29T08:48:20.041Z,1.80
2018-05-29T08:50:48.312Z,2.00
2018-05-29T08:53:15.845Z,1.90
2018-05-29T08:55:43.361Z,1.90
2018-05-29T08:58:10.934Z,1.70
2018-05-29T09:00:39.258Z,1.87
2018-05-29T09:03:06.829Z,2.08
2018-05-29T09:05:34.379Z,1.90
2018-05-29T09:08:02.693Z,2.00
2018-05-29T09:10:30.197Z,1.92
2018-05-29T09:12:57.759Z,2.00
2018-05-29T09:15:25.328Z,1.85
2018-05-29T09:17:52.869Z,2.50
2018-05-29T09:20:20.396Z,2.20
2018-05-29T09:22:47.954Z,2.20
2018-05-29T09:25:15.461Z,2.37
2018-05-29T09:27:43.757Z,2.42
2018-05-29T09:30:12.032Z,2.50
2018-05-29T09:32:39.577Z,2.42
2018-05-29T09:35:07.096Z,3.03
2018-05-29T09:37:35.439Z,3.85
2018-05-29T09:40:02.930Z,4.10
2018-05-29T09:42:30.490Z,4.40
2018-05-29T09:44:58.015Z,5.28
2018-05-29T09:47:25.641Z,5.90
2018-05-29T09:49:53.260Z,7.50
2018-05-29T09:52:20.782Z,8.40
2018-05-29T09:54:48.289Z,8.23
2018-05-29T09:57:16.578Z,8.23
2018-05-29T09:59:44.861Z,9.03
2018-05-29T10:02:13.257Z,8.43
2018-05-29T10:04:41.533Z,9.47
2018-05-29T10:07:09.885Z,9.37
2018-05-29T10:09:37.423Z,10.00
2018-05-29T10:12:04.995Z,10.10
2018-05-29T10:14:32.535Z,10.83
2018-05-29T10:17:00.073Z,10.40
2018-05-29T10:19:27.663Z,10.20
2018-05-29T10:21:55.129Z,10.43
2018-05-29T10:24:22.660Z,10.00
2018-05-29T10:26:50.189Z,9.83
2018-05-29T10:29:17.756Z,10.47
2018-05-29T10:31:46.049Z,10.20
2018-05-29T10:34:13.640Z,9.30
2018-05-29T10:36:41.970Z,9.73
2018-05-29T10:39:09.581Z,10.33
2018-05-29T10:41:37.092Z,9.60
2018-05-29T10:44:04.671Z,8.70
2018-05-29T10:46:32.306Z,8.60
2018-05-29T10:48:59.877Z,8.30
2018-05-29T10:51:27.388Z,9.37
2018-05-29T10:53:54.957Z,8.67
2018-05-29T10:56:22.468Z,9.10
2018-05-29T10:58:50.012Z,9.23
2018-05-29T11:01:17.521Z,8.30
2018-05-29T11:03:45.097Z,8.63
2018-05-29T11:06:12.614Z,8.23
2018-05-29T11:08:40.125Z,8.53
2018-05-29T11:11:07.665Z,8.50
2018-05-29T11:13:35.221Z,8.90
2018-05-29T11:16:02.793Z,8.80
2018-05-29T11:18:30.310Z,8.23
2018-05-29T11:20:57.877Z,8.53
2018-05-29T11:23:25.964Z,8.60
2018-05-29T11:25:53.557Z,9.30
2018-05-29T11:28:21.158Z,8.07
2018-05-29T11:30:49.444Z,9.47
2018-05-29T11:33:17.818Z,9.90
2018-05-29T11:35:46.131Z,9.83
2018-05-29T11:38:13.640Z,10.20
2018-05-29T11:40:41.190Z,9.57
2018-05-29T11:43:08.711Z,9.50
2018-05-29T11:45:36.229Z,9.60
2018-05-29T11:48:03.774Z,10.50
2018-05-29T11:50:32.099Z,10.37
2018-05-29T11:52:59.605Z,10.70
2018-05-29T11:55:27.160Z,10.60
2018-05-29T11:57:54.760Z,11.63
2018-05-29T12:00:22.289Z,11.03
2018-05-29T12:02:49.932Z,11.20
2018-05-29T12:05:18.230Z,11.03
2018-05-29T12:07:45.770Z,10.47
2018-05-29T12:10:13.305Z,10.60
2018-05-29T12:12:40.811Z,11.37
2018-05-29T12:15:08.422Z,12.13
2018-05-29T12:17:35.999Z,10.63
2018-05-29T12:20:03.571Z,12.57
2018-05-29T12:22:31.145Z,10.77
2018-05-29T12:24:58.708Z,11.27
2018-05-29T12:27:26.254Z,13.00
2018-05-29T12:29:53.777Z,11.93
2018-05-29T12:32:21.316Z,11.80
2018-05-29T12:34:49.625Z,11.50
2018-05-29T12:37:17.207Z,13.03
2018-05-29T12:39:44.769Z,11.87
2018-05-29T12:42:12.313Z,13.93
2018-05-29T12:44:40.584Z,12.67
2018-05-29T12:47:08.113Z,12.80
2018-05-29T12:49:35.677Z,13.00
2018-05-29T12:52:03.220Z,13.50
2018-05-29T12:54:31.508Z,12.40
2018-05-29T12:56:59.819Z,12.93
2018-05-29T12:59:27.336Z,12.50
2018-05-29T13:01:54.868Z,12.90
2018-05-29T13:04:22.436Z,12.63
2018-05-29T13:06:49.970Z,14.10
2018-05-29T13:09:17.489Z,14.10
2018-05-29T13:11:45.027Z,14.30
2018-05-29T13:14:13.302Z,12.70
2018-05-29T13:16:40.881Z,13.70
2018-05-29T13:19:08.380Z,13.20
2018-05-29T13:21:35.952Z,13.50
2018-05-29T13:24:03.490Z,14.00
2018-05-29T13:26:31.090Z,13.90
2018-05-29T13:28:59.448Z,13.77
2018-05-29T13:31:26.962Z,14.17
2018-05-29T13:33:54.504Z,15.20
2018-05-29T13:36:22.821Z,14.30
2018-05-29T13:38:50.517Z,14.87
2018-05-29T13:41:18.069Z,13.80
2018-05-29T13:43:45.633Z,14.43
2018-05-29T13:46:13.193Z,13.83
2018-05-29T13:48:41.614Z,13.47
2018-05-29T13:51:09.121Z,13.50
2018-05-29T13:53:36.656Z,14.50
2018-05-29T13:56:04.224Z,13.10
2018-05-29T13:58:31.824Z,13.77
2018-05-29T14:00:59.362Z,13.60
2018-05-29T14:03:26.953Z,14.53
2018-05-29T14:05:54.461Z,31.17
2018-05-29T14:08:21.992Z,34.00
2018-05-29T14:10:49.504Z,36.33
2018-05-29T14:13:17.141Z,37.63
2018-05-29T14:15:44.684Z,39.37
2018-05-29T14:18:12.208Z,39.00
2018-05-29T14:20:39.874Z,37.13
2018-05-29T14:23:07.457Z,35.87
2018-05-29T14:25:34.985Z,36.70
2018-05-29T14:28:02.492Z,36.17
2018-05-29T14:30:30.022Z,32.27
2018-05-29T14:32:57.548Z,27.97
2018-05-29T14:35:26.585Z,27.33
2018-05-29T14:37:54.857Z,25.30
2018-05-29T14:40:22.383Z,22.60
2018-05-29T14:42:49.929Z,23.00
2018-05-29T14:45:17.460Z,22.07
2018-05-29T14:47:44.965Z,22.83
2018-05-29T14:50:13.470Z,21.20
2018-05-29T14:52:41.033Z,13.20
2018-05-29T14:55:09.316Z,8.47
2018-05-29T14:57:37.594Z,8.53
2018-05-29T15:00:05.911Z,9.63
2018-05-29T15:02:33.417Z,9.90
2018-05-29T15:05:01.055Z,10.30
2018-05-29T15:07:28.621Z,9.93
2018-05-29T15:09:56.177Z,9.57
2018-05-29T15:12:24.457Z,9.97
2018-05-29T15:14:52.751Z,10.47
2018-05-29T15:17:21.043Z,10.00
2018-05-29T15:19:49.340Z,10.40
2018-05-29T15:22:17.643Z,10.40
2018-05-29T15:24:45.180Z,11.60
2018-05-29T15:27:12.685Z,10.73
2018-05-29T15:29:40.229Z,10.80
2018-05-29T15:32:07.748Z,10.80
2018-05-29T15:34:35.301Z,11.70
2018-05-29T15:37:02.887Z,13.07
2018-05-29T15:39:30.403Z,11.63
2018-05-29T15:41:58.051Z,10.10
2018-05-29T15:44:25.644Z,10.90
2018-05-29T15:46:53.176Z,9.50
2018-05-29T15:49:20.733Z,10.30
2018-05-29T15:51:48.293Z,9.67
2018-05-29T15:54:16.689Z,7.13
2018-05-29T15:56:44.213Z,7.87
2018-05-29T15:59:11.721Z,8.00
2018-05-29T16:01:40.032Z,8.07
2018-05-29T16:04:07.541Z,8.80
2018-05-29T16:06:35.076Z,9.23
2018-05-29T16:09:02.582Z,8.60
2018-05-29T16:11:30.117Z,10.60
2018-05-29T16:13:57.651Z,12.57
2018-05-29T16:16:25.181Z,12.73
2018-05-29T16:18:53.421Z,11.17
2018-05-29T16:21:21.713Z,12.00
2018-05-29T16:23:50.026Z,11.60
2018-05-29T16:26:17.553Z,11.93
2018-05-29T16:28:45.097Z,14.57
2018-05-29T16:31:12.636Z,12.63
2018-05-29T16:33:40.169Z,13.97
2018-05-29T16:36:07.696Z,13.90
2018-05-29T16:38:35.209Z,14.83
2018-05-29T16:41:02.725Z,14.17
2018-05-29T16:43:30.252Z,14.27
2018-05-29T16:45:57.755Z,13.80
2018-05-29T16:48:26.049Z,12.10
2018-05-29T16:50:53.563Z,14.67
2018-05-29T16:53:21.100Z,14.90
2018-05-29T16:55:48.616Z,17.03
2018-05-29T16:58:16.168Z,18.03
2018-05-29T17:00:43.674Z,17.30
2018-05-29T17:03:11.209Z,17.87
2018-05-29T17:05:38.724Z,17.00
2018-05-29T17:08:06.289Z,17.20
2018-05-29T17:10:33.801Z,17.33
2018-05-29T17:13:01.349Z,17.30
2018-05-29T17:15:29.706Z,17.03
2018-05-29T17:17:57.942Z,15.10
2018-05-29T17:20:25.512Z,15.53
2018-05-29T17:22:53.803Z,15.20
2018-05-29T17:25:21.473Z,13.10
2018-05-29T17:27:49.768Z,12.53
2018-05-29T17:30:17.281Z,12.33
2018-05-29T17:32:45.024Z,12.10
2018-05-29T17:35:12.611Z,11.60
2018-05-29T17:37:40.151Z,11.73
2018-05-29T17:40:08.429Z,10.80
2018-05-29T17:42:36.824Z,11.53
2018-05-29T17:45:05.185Z,11.00
2018-05-29T17:47:32.741Z,10.20
2018-05-29T17:50:00.248Z,11.97
2018-05-29T17:52:27.780Z,10.83
2018-05-29T17:54:55.289Z,11.73
2018-05-29T17:57:22.812Z,10.77
2018-05-29T17:59:50.329Z,11.13
2018-05-29T18:02:17.938Z,10.30
2018-05-29T18:04:45.387Z,11.47
2018-05-29T18:07:13.681Z,10.10
2018-05-29T18:09:41.953Z,10.83
2018-05-29T18:12:09.494Z,11.10
2018-05-29T18:14:36.996Z,10.80
2018-05-29T18:17:04.620Z,10.53
2018-05-29T18:19:32.154Z,10.60
2018-05-29T18:22:00.429Z,10.27
2018-05-29T18:24:28.104Z,10.50
2018-05-29T18:26:55.659Z,10.40
2018-05-29T18:29:23.185Z,9.97
2018-05-29T18:31:50.696Z,10.70
2018-05-29T18:34:18.224Z,10.30
2018-05-29T18:36:45.763Z,9.90
2018-05-29T18:39:13.296Z,10.40
2018-05-29T18:41:40.829Z,10.50
2018-05-29T18:44:08.361Z,10.07
2018-05-29T18:46:35.878Z,11.10
2018-05-29T18:49:03.444Z,9.60
2018-05-29T18:51:31.734Z,9.80
2018-05-29T18:54:00.027Z,9.83
2018-05-29T18:56:27.608Z,9.60
2018-05-29T18:58:55.153Z,10.10
2018-05-29T19:01:23.428Z,9.67
2018-05-29T19:03:51.036Z,10.80
2018-05-29T19:06:18.549Z,11.03
2018-05-29T19:08:46.108Z,10.53
2018-05-29T19:11:13.630Z,10.37
2018-05-29T19:13:41.948Z,9.40
2018-05-29T19:16:09.509Z,8.70
2018-05-29T19:18:37.165Z,8.20
2018-05-29T19:21:05.467Z,6.80
2018-05-29T19:23:33.772Z,7.83
2018-05-29T19:26:01.272Z,7.40
2018-05-29T19:28:28.808Z,7.77
2018-05-29T19:30:56.317Z,5.80
2018-05-29T19:33:23.959Z,7.10
2018-05-29T19:35:51.460Z,7.13
2018-05-29T19:38:18.984Z,6.17
2018-05-29T19:40:47.248Z,6.80
2018-05-29T19:43:14.864Z,7.60
2018-05-29T19:45:42.519Z,8.23
2018-05-29T19:48:10.788Z,6.07
2018-05-29T19:50:38.313Z,7.10
2018-05-29T19:53:05.828Z,7.57
2018-05-29T19:55:33.358Z,7.67
2018-05-29T19:58:00.861Z,7.43
2018-05-29T20:00:28.395Z,7.20
2018-05-29T20:02:55.901Z,6.57
2018-05-29T20:05:23.424Z,6.27
2018-05-29T20:07:50.933Z,7.10
2018-05-29T20:10:18.452Z,6.13
2018-05-29T20:12:46.736Z,6.30
2018-05-29T20:15:15.036Z,5.23
2018-05-29T20:17:43.308Z,5.93
2018-05-29T20:20:11.612Z,6.17
2018-05-29T20:22:39.192Z,6.07
2018-05-29T20:25:06.757Z,6.87
2018-05-29T20:27:35.028Z,5.97
2018-05-29T20:30:03.341Z,6.00
2018-05-29T20:32:30.949Z,5.93
2018-05-29T20:34:58.476Z,6.00
2018-05-29T20:37:26.824Z,6.00
2018-05-29T20:39:54.354Z,7.70
2018-05-29T20:42:21.868Z,7.07
2018-05-29T20:44:49.396Z,6.47
2018-05-29T20:47:16.903Z,6.50
2018-05-29T20:49:44.428Z,7.10
2018-05-29T20:52:11.934Z,7.50
2018-05-29T20:54:39.461Z,7.70
2018-05-29T20:57:07.738Z,7.60
2018-05-29T20:59:36.052Z,7.33
2018-05-29T21:02:03.545Z,7.00
2018-05-29T21:04:31.096Z,7.03
2018-05-29T21:06:58.602Z,7.70
2018-05-29T21:09:26.143Z,6.40
2018-05-29T21:11:53.654Z,7.63
2018-05-29T21:14:21.272Z,6.90
2018-05-29T21:16:49.556Z,6.73
2018-05-29T21:19:17.837Z,7.73
2018-05-29T21:21:45.427Z,6.43
2018-05-29T21:24:13.001Z,6.90
2018-05-29T21:26:40.584Z,7.80
2018-05-29T21:29:08.088Z,7.47
2018-05-29T21:31:35.606Z,6.60
2018-05-29T21:34:03.882Z,7.07
2018-05-29T21:36:31.403Z,6.83
2018-05-29T21:38:58.920Z,7.47
2018-05-29T21:41:26.445Z,6.80
2018-05-29T21:43:53.949Z,6.83
2018-05-29T21:46:21.477Z,7.60
2018-05-29T21:48:49.044Z,7.07
2018-05-29T21:51:16.604Z,6.97
2018-05-29T21:53:44.892Z,6.50
2018-05-29T21:56:13.319Z,6.13
2018-05-29T21:58:40.821Z,6.90
2018-05-29T22:01:08.349Z,6.43
2018-05-29T22:03:35.926Z,6.30
2018-05-29T22:06:03.477Z,6.80
2018-05-29T22:08:31.157Z,6.80
2018-05-29T22:10:58.715Z,5.73
2018-05-29T22:13:27.009Z,7.10
2018-05-29T22:15:54.536Z,7.10
2018-05-29T22:18:22.059Z,6.20
2018-05-29T22:20:49.581Z,6.17
2018-05-29T22:23:17.204Z,6.23
2018-05-29T22:25:44.709Z,6.10
2018-05-29T22:28:12.340Z,6.43
2018-05-29T22:30:39.912Z,6.47
2018-05-29T22:33:07.389Z,6.37
2018-05-29T22:35:34.888Z,6.17
2018-05-29T22:38:02.422Z,6.53
2018-05-29T22:40:30.705Z,6.73
2018-05-29T22:42:59.100Z,6.20
2018-05-29T22:45:27.370Z,7.00
2018-05-29T22:47:54.889Z,6.97
2018-05-29T22:50:22.393Z,6.37
2018-05-29T22:52:49.921Z,6.73
2018-05-29T22:55:17.425Z,7.00
2018-05-29T22:57:45.042Z,6.50
2018-05-29T23:00:13.329Z,7.17
2018-05-29T23:02:41.609Z,6.30
2018-05-29T23:05:09.149Z,7.40
2018-05-29T23:07:36.698Z,7.60
2018-05-29T23:10:04.248Z,7.30
2018-05-29T23:12:31.758Z,7.47
2018-05-29T23:14:59.385Z,6.93
2018-05-29T23:17:27.652Z,7.83
2018-05-29T23:19:55.247Z,7.07
2018-05-29T23:22:23.521Z,7.67
2018-05-29T23:24:51.808Z,7.97
2018-05-29T23:27:20.081Z,7.63
2018-05-29T23:29:47.613Z,6.37
2018-05-29T23:32:15.145Z,7.10
2018-05-29T23:34:43.432Z,7.57
2018-05-29T23:37:11.705Z,8.07
2018-05-29T23:39:39.224Z,7.50
2018-05-29T23:42:06.792Z,8.43
2018-05-29T23:44:34.353Z,7.87
2018-05-29T23:47:02.645Z,7.73
2018-05-29T23:49:30.224Z,7.93
2018-05-29T23:51:57.797Z,8.17
2018-05-29T23:54:25.301Z,7.20
2018-05-29T23:56:52.821Z,7.33
2018-05-29T23:59:21.085Z,6.93
